Time;durP1;ratioP1;P1;durP2;ratioP2;P2;SDS_P1;SDS_P2;PMS_P1;PMS_P2;Temp;Humidity;BMP_temperature;BMP_pressure;BME280_temperature;BME280_humidity;BME280_pressure;Samples;Min_cycle;Max_cycle;Signal;HPM_P1;HPM_P2
2021/03/04 00:01:14;;;;;;;25.60;17.63;;;;;;;0.93;71.72;100703.31;1674324;82;21098;-89
2021/03/04 00:03:46;;;;;;;24.30;18.07;;;;;;;0.85;71.92;100713.08;1653378;82;21176;-88
2021/03/04 00:06:14;;;;;;;28.30;18.77;;;;;;;0.80;71.97;100697.33;1657753;82;21181;-88
2021/03/04 00:08:44;;;;;;;24.43;17.83;;;;;;;0.78;72.09;100686.45;1661734;82;21205;-89
2021/03/04 00:11:22;;;;;;;25.97;17.83;;;;;;;0.73;72.01;100689.89;1662998;82;21160;-90
2021/03/04 00:14:31;;;;;;;27.40;17.37;;;;;;;0.73;72.02;100688.58;1666366;83;21189;-91
2021/03/04 00:17:22;;;;;;;24.43;17.33;;;;;;;0.66;72.13;100683.91;1634854;82;21156;-90
2021/03/04 00:20:16;;;;;;;27.23;18.73;;;;;;;0.61;72.22;100682.14;1669077;80;21206;-88
2021/03/04 00:22:44;;;;;;;27.80;18.57;;;;;;;0.55;72.22;100669.84;1671327;83;21215;-87
2021/03/04 00:25:13;;;;;;;29.43;16.50;;;;;;;0.53;72.26;100665.19;1666468;83;21287;-91
2021/03/04 00:27:42;;;;;;;24.70;17.60;;;;;;;0.53;72.25;100671.73;1671385;83;21227;-91
2021/03/04 00:30:55;;;;;;;23.23;16.97;;;;;;;0.53;72.22;100666.98;1662479;84;21219;-93
2021/03/04 00:33:46;;;;;;;27.47;17.97;;;;;;;0.46;72.28;100667.90;1619888;87;21629;-92
2021/03/04 00:36:20;;;;;;;24.13;16.83;;;;;;;0.50;72.29;100668.02;1601456;87;21232;-90
2021/03/04 00:39:15;;;;;;;30.20;16.67;;;;;;;0.48;72.40;100665.99;1628634;87;21254;-90
2021/03/04 00:41:48;;;;;;;23.63;15.37;;;;;;;0.51;72.28;100658.36;1597205;89;21259;-92
2021/03/04 00:44:27;;;;;;;23.27;14.30;;;;;;;0.46;72.42;100654.78;1623582;86;21101;-88
2021/03/04 00:46:55;;;;;;;23.60;15.40;;;;;;;0.53;72.36;100649.93;1631555;85;21263;-88
2021/03/04 00:49:24;;;;;;;23.50;15.57;;;;;;;0.30;72.22;100609.22;1647220;86;21407;-90
2021/03/04 00:51:53;;;;;;;16.20;11.97;;;;;;;0.56;72.16;100636.56;1649109;85;21189;-90
2021/03/04 00:54:24;;;;;;;22.57;15.60;;;;;;;0.57;72.08;100631.69;1716641;82;21217;-92
2021/03/04 00:56:53;;;;;;;16.43;11.87;;;;;;;0.61;71.93;100631.81;1660187;84;21188;-90
2021/03/04 00:59:22;;;;;;;27.47;17.07;;;;;;;0.56;71.99;100628.20;1664003;84;21237;-92
2021/03/04 01:01:52;;;;;;;23.30;16.60;;;;;;;0.57;71.98;100624.64;1645815;84;21153;-90
2021/03/04 01:04:25;;;;;;;21.43;15.20;;;;;;;0.66;71.92;100624.44;1650504;84;21254;-91
2021/03/04 01:07:01;;;;;;;23.00;14.93;;;;;;;0.67;71.90;100629.20;1659956;85;21214;-91
2021/03/04 01:10:04;;;;;;;26.57;16.13;;;;;;;0.59;72.16;100608.80;1664714;84;21215;-91
2021/03/04 01:12:40;;;;;;;24.40;15.57;;;;;;;0.47;72.58;100609.27;1640078;85;21415;-91
2021/03/04 01:15:19;;;;;;;25.03;16.37;;;;;;;0.44;72.76;100604.72;1636015;86;21157;-91
2021/03/04 01:17:58;;;;;;;25.43;15.53;;;;;;;0.36;73.11;100589.09;1647143;85;21243;-90
2021/03/04 01:20:38;;;;;;;27.17;18.32;;;;;;;0.42;73.23;100590.41;1626679;87;21189;-91
2021/03/04 01:23:10;;;;;;;28.92;16.93;;;;;;;0.38;73.56;100582.42;1625363;85;21165;-89
2021/03/04 01:25:38;;;;;;;27.30;17.57;;;;;;;0.44;73.98;100581.95;1606952;86;21204;-91
2021/03/04 01:28:05;;;;;;;27.47;18.03;;;;;;;0.43;73.95;100580.26;1626648;82;21385;-90
2021/03/04 01:30:39;;;;;;;26.87;17.20;;;;;;;0.57;73.77;100581.84;1673610;82;21173;-90
2021/03/04 01:33:10;;;;;;;30.30;18.87;;;;;;;0.65;73.78;100578.63;1643285;83;21263;-87
2021/03/04 01:35:41;;;;;;;29.87;18.93;;;;;;;0.57;73.98;100578.73;1677914;81;21282;-88
2021/03/04 01:38:30;;;;;;;29.17;18.73;;;;;;;0.53;74.37;100576.00;1665301;83;21192;-91
2021/03/04 01:41:03;;;;;;;27.87;17.00;;;;;;;0.55;74.57;100567.53;1668622;84;21406;-92
2021/03/04 01:43:32;;;;;;;34.63;19.50;;;;;;;0.56;74.59;100560.00;1621824;86;21238;-90
2021/03/04 01:46:06;;;;;;;30.20;19.87;;;;;;;0.57;74.66;100555.61;1683208;84;21227;-92
2021/03/04 01:48:52;;;;;;;30.17;18.40;;;;;;;0.72;74.51;100554.91;1654045;83;21235;-92
2021/03/04 01:51:42;;;;;;;32.20;19.50;;;;;;;0.82;74.49;100544.52;1652228;83;21235;-89
2021/03/04 01:54:14;;;;;;;32.80;18.63;;;;;;;0.76;74.65;100551.91;1664624;84;21248;-90
2021/03/04 01:56:52;;;;;;;31.40;19.93;;;;;;;0.73;74.88;100554.77;1671117;85;21207;-90
2021/03/04 01:59:31;;;;;;;29.20;17.15;;;;;;;0.72;74.95;100547.03;1634792;86;21223;-90
2021/03/04 02:02:04;;;;;;;33.37;20.50;;;;;;;0.79;74.88;100545.58;1626300;86;21175;-91
2021/03/04 02:05:11;;;;;;;30.70;18.80;;;;;;;0.80;74.99;100524.95;1793896;78;22816;-91
2021/03/04 02:08:23;;;;;;;34.13;20.30;;;;;;;0.88;74.80;100519.92;1704330;82;21197;-90
2021/03/04 02:11:10;;;;;;;34.97;20.73;;;;;;;0.75;74.66;100502.17;1719536;81;21368;-88
2021/03/04 02:13:43;;;;;;;35.97;20.53;;;;;;;0.89;75.01;100512.42;1724543;79;21160;-89
2021/03/04 02:16:22;;;;;;;35.67;20.50;;;;;;;0.86;75.07;100516.59;1718565;78;21231;-90
2021/03/04 02:18:59;;;;;;;34.70;20.20;;;;;;;-0.46;74.98;100304.05;1713837;82;21208;-90
2021/03/04 02:22:03;;;;;;;35.38;20.40;;;;;;;0.93;74.91;100508.59;1719505;82;21205;-92
2021/03/04 02:24:53;;;;;;;38.13;22.63;;;;;;;0.99;74.77;100494.64;1720937;82;21176;-89
2021/03/04 02:27:31;;;;;;;33.20;19.30;;;;;;;0.90;74.93;100490.95;1693647;82;21383;-91
2021/03/04 02:30:11;;;;;;;34.50;19.43;;;;;;;0.82;75.26;100481.06;1706417;82;21327;-92
2021/03/04 02:33:13;;;;;;;33.37;17.43;;;;;;;0.80;75.39;100481.66;1704197;83;21207;-91
2021/03/04 02:35:44;;;;;;;33.93;20.33;;;;;;;0.87;75.15;100480.22;1700219;82;21653;-90
2021/03/04 02:38:19;;;;;;;39.03;24.30;;;;;;;0.96;74.86;100478.18;1712202;82;21243;-91
2021/03/04 02:40:49;;;;;;;33.37;21.33;;;;;;;0.95;74.85;100475.19;1709858;82;21218;-91
2021/03/04 02:43:28;;;;;;;35.80;21.33;;;;;;;0.88;75.20;100466.61;1716497;82;21151;-90
2021/03/04 02:45:58;;;;;;;34.13;20.40;;;;;;;0.83;75.44;100463.06;1681980;83;21153;-91
2021/03/04 02:48:33;;;;;;;44.43;23.30;;;;;;;0.81;75.48;100460.18;1676198;84;21338;-90
2021/03/04 02:51:04;;;;;;;34.33;20.35;;;;;;;0.85;75.51;100442.77;1681106;84;21236;-91
2021/03/04 02:53:39;;;;;;;32.53;20.20;;;;;;;0.96;75.31;100441.44;1667164;85;21219;-93
2021/03/04 02:56:18;;;;;;;36.77;21.80;;;;;;;0.95;75.42;100438.92;1696508;82;21194;-93
2021/03/04 02:59:10;;;;;;;41.90;23.10;;;;;;;0.88;75.72;100440.37;1689776;83;21203;-93
2021/03/04 03:01:45;;;;;;;41.83;22.83;;;;;;;0.75;76.27;100427.39;1683514;84;21221;-92
2021/03/04 03:04:36;;;;;;;42.33;22.53;;;;;;;0.69;76.65;100429.20;1712636;83;21350;-85
2021/03/04 03:07:07;;;;;;;36.77;21.80;;;;;;;0.80;76.31;100412.12;1691887;84;21196;-89
2021/03/04 03:09:39;;;;;;;36.60;22.80;;;;;;;0.84;76.33;100410.09;1697336;83;21210;-90
2021/03/04 03:12:12;;;;;;;47.50;24.60;;;;;;;0.77;76.82;100404.48;1673225;81;21423;-89
2021/03/04 03:14:41;;;;;;;48.17;26.23;;;;;;;0.72;76.93;100396.17;1696348;84;21298;-90
2021/03/04 03:17:09;;;;;;;43.47;24.90;;;;;;;0.48;77.08;100368.31;1672626;84;21446;-90
2021/03/04 03:19:39;;;;;;;41.70;25.67;;;;;;;0.78;77.05;100401.74;1660408;83;21136;-90
2021/03/04 03:22:07;;;;;;;41.57;24.83;;;;;;;0.90;76.93;100394.66;1665345;83;21338;-88
2021/03/04 03:24:36;;;;;;;38.37;22.30;;;;;;;0.93;76.82;100388.35;1656061;85;21180;-88
2021/03/04 03:27:04;;;;;;;42.83;25.70;;;;;;;0.91;77.04;100384.53;1672782;85;21231;-88
2021/03/04 03:29:33;;;;;;;45.97;25.83;;;;;;;0.90;77.13;100389.41;1615638;86;21268;-89
2021/03/04 03:32:00;;;;;;;46.33;26.13;;;;;;;0.90;77.17;100388.10;1665192;84;21230;-88
2021/03/04 03:34:30;;;;;;;46.67;27.37;;;;;;;0.94;77.19;100380.36;1664469;85;21158;-89
2021/03/04 03:36:57;;;;;;;42.47;24.73;;;;;;;1.10;76.75;100381.72;1661769;85;21704;-90
2021/03/04 03:39:27;;;;;;;54.07;30.73;;;;;;;1.16;76.67;100383.34;1663358;84;21217;-90
2021/03/04 03:41:54;;;;;;;48.40;27.33;;;;;;;1.13;76.76;100373.58;1665260;84;21205;-91
2021/03/04 03:44:21;;;;;;;47.00;26.80;;;;;;;1.12;76.95;100373.23;1691109;83;21709;-87
2021/03/04 03:46:50;;;;;;;45.33;26.97;;;;;;;1.11;77.06;100370.25;1627519;86;21376;-92
2021/03/04 03:49:22;;;;;;;49.17;29.03;;;;;;;1.11;76.97;100355.35;1655786;86;21226;-88
2021/03/04 03:51:51;;;;;;;45.40;27.53;;;;;;;1.28;76.61;100356.58;1661560;86;21328;-89
2021/03/04 03:54:19;;;;;;;45.33;26.17;;;;;;;1.30;76.56;100349.86;1660026;81;21183;-90
2021/03/04 03:56:46;;;;;;;55.63;31.17;;;;;;;1.22;76.81;100345.25;1662051;81;21245;-90
2021/03/04 03:59:15;;;;;;;48.73;27.80;;;;;;;1.13;77.23;100332.42;1688362;81;21171;-88
2021/03/04 04:01:43;;;;;;;;;;;;;;;1.10;77.23;100330.53;1685664;84;21112;-85
2021/03/04 04:04:11;;;;;;;45.97;27.23;;;;;;;1.20;77.14;100317.47;1667557;84;20197;-88
2021/03/04 04:06:40;;;;;;;48.47;28.70;;;;;;;1.25;77.01;100321.86;1675465;84;21197;-86
2021/03/04 04:09:09;;;;;;;44.93;27.90;;;;;;;1.20;77.14;100315.66;1639798;85;21846;-85
2021/03/04 04:11:37;;;;;;;51.93;30.43;;;;;;;1.18;77.24;100311.02;1724578;80;21089;-87
2021/03/04 04:14:04;;;;;;;48.23;27.33;;;;;;;1.15;77.31;100297.69;1738093;82;21204;-88
2021/03/04 04:16:32;;;;;;;50.43;27.90;;;;;;;1.15;77.34;100288.49;1736770;81;21183;-87
2021/03/04 04:19:01;;;;;;;50.47;28.03;;;;;;;1.27;77.00;100277.92;1715972;81;21193;-89
2021/03/04 04:21:28;;;;;;;52.90;31.83;;;;;;;1.31;76.82;100274.89;1727063;79;21142;-85
2021/03/04 04:24:04;;;;;;;49.60;30.53;;;;;;;1.27;76.87;100262.16;1748990;79;21104;-88
2021/03/04 04:26:32;;;;;;;52.13;27.63;;;;;;;1.21;77.06;100258.75;1733027;81;21194;-87
2021/03/04 04:28:58;;;;;;;44.63;26.97;;;;;;;1.14;77.21;100247.92;1735658;81;21332;-88
2021/03/04 04:31:25;;;;;;;47.10;29.60;;;;;;;1.17;77.21;100238.48;1739710;80;22187;-87
2021/03/04 04:33:53;;;;;;;44.37;28.03;;;;;;;1.29;76.85;100243.17;1731011;80;21306;-86
2021/03/04 04:36:19;;;;;;;48.83;29.27;;;;;;;1.28;76.75;100248.91;1726701;82;21219;-85
2021/03/04 04:38:47;;;;;;;46.50;27.87;;;;;;;1.24;76.87;100244.86;1728997;82;21218;-88
2021/03/04 04:41:14;;;;;;;50.83;27.93;;;;;;;1.20;76.94;100238.20;1712937;82;21224;-88
2021/03/04 04:43:41;;;;;;;51.53;29.17;;;;;;;1.18;76.94;100228.31;1727513;81;21167;-87
2021/03/04 04:46:08;;;;;;;51.90;29.17;;;;;;;1.25;76.75;100225.53;1716938;79;21081;-88
2021/03/04 04:48:35;;;;;;;47.93;30.03;;;;;;;1.36;76.38;100232.01;1721387;81;21209;-86
2021/03/04 04:51:07;;;;;;;47.50;29.77;;;;;;;1.42;76.22;100229.83;1720675;82;21163;-87
2021/03/04 04:53:34;;;;;;;49.73;29.40;;;;;;;1.36;76.26;100216.25;1717577;82;21161;-87
2021/03/04 04:56:01;;;;;;;50.10;30.63;;;;;;;1.33;76.22;100219.13;1710754;81;21124;-88
2021/03/04 04:58:29;;;;;;;49.73;30.03;;;;;;;1.26;76.26;100212.77;1710587;82;21149;-87
2021/03/04 05:00:56;;;;;;;49.40;30.57;;;;;;;1.31;76.19;100218.92;1718505;81;21453;-85
2021/03/04 05:03:24;;;;;;;48.50;32.10;;;;;;;1.42;75.72;100204.38;1715000;81;21169;-88
2021/03/04 05:05:51;;;;;;;44.07;28.73;;;;;;;1.46;75.69;100204.95;1723181;82;21180;-88
2021/03/04 05:08:19;;;;;;;44.20;27.03;;;;;;;1.48;75.77;100201.71;1724898;82;21682;-88
2021/03/04 05:10:47;;;;;;;47.27;30.00;;;;;;;1.57;75.68;100196.97;1725042;81;21216;-87
2021/03/04 05:13:14;;;;;;;47.10;27.97;;;;;;;1.73;75.41;100195.98;1741288;81;21132;-89
2021/03/04 05:15:43;;;;;;;50.00;31.43;;;;;;;1.82;74.69;100166.73;1741108;81;21297;-90
2021/03/04 05:18:11;;;;;;;42.97;26.43;;;;;;;2.31;73.51;100187.81;1744235;78;21197;-87
2021/03/04 05:20:38;;;;;;;45.43;29.67;;;;;;;2.38;72.14;100142.89;1735151;82;21139;-90
2021/03/04 05:23:05;;;;;;;50.37;30.60;;;;;;;2.86;71.69;100181.47;1738757;78;21067;-88
2021/03/04 05:25:44;;;;;;;47.57;30.00;;;;;;;3.15;70.49;100177.09;1688840;83;21191;-90
2021/03/04 05:28:13;;;;;;;45.53;29.50;;;;;;;3.47;69.58;100164.81;1718959;82;21497;-88
2021/03/04 05:30:41;;;;;;;45.83;30.10;;;;;;;3.83;68.56;100171.47;1720869;81;21154;-87
2021/03/04 05:33:08;;;;;;;46.57;29.00;;;;;;;4.19;66.52;100172.31;1717431;82;21351;-89
2021/03/04 05:35:37;;;;;;;49.87;31.00;;;;;;;4.61;64.88;100169.52;1703529;82;21178;-88
2021/03/04 05:38:05;;;;;;;45.83;30.53;;;;;;;4.97;63.75;100166.79;1679681;84;21174;-87
2021/03/04 05:40:39;;;;;;;49.23;32.13;;;;;;;5.33;63.10;100164.00;1639235;86;21232;-86
2021/03/04 05:43:09;;;;;;;46.07;31.07;;;;;;;5.75;61.00;100166.64;1671546;84;21194;-87
2021/03/04 05:45:38;;;;;;;39.00;26.67;;;;;;;6.16;59.52;100156.17;1687751;82;21183;-88
2021/03/04 05:48:07;;;;;;;42.10;30.43;;;;;;;6.61;58.66;100147.38;1674565;84;21340;-87
2021/03/04 05:50:47;;;;;;;48.07;29.80;;;;;;;7.07;56.31;100138.87;1672914;83;21171;-89
2021/03/04 05:53:18;;;;;;;46.33;30.87;;;;;;;7.25;55.53;100138.63;1668677;84;21223;-89
2021/03/04 05:55:47;;;;;;;43.73;27.93;;;;;;;7.59;54.93;100131.20;1680776;82;21190;-89
2021/03/04 05:58:18;;;;;;;41.93;29.17;;;;;;;7.94;53.52;100134.80;1686514;81;21147;-94
2021/03/04 06:01:23;;;;;;;39.53;30.03;;;;;;;7.92;52.78;100089.86;1663644;84;21168;-91
2021/03/04 06:03:54;;;;;;;41.87;29.17;;;;;;;8.45;51.75;100127.13;1682366;81;21168;-88
2021/03/04 06:06:25;;;;;;;42.53;27.97;;;;;;;8.65;51.79;100127.46;1688273;84;21192;-91
2021/03/04 06:11:28;;;;;;;44.50;30.03;;;;;;;9.02;49.95;100104.47;1790955;79;23020;-89
2021/03/04 06:14:07;;;;;;;42.83;29.97;;;;;;;9.04;49.63;100100.30;1645032;85;21187;-95
2021/03/04 06:17:22;;;;;;;40.17;29.73;;;;;;;9.23;49.34;100105.55;1637623;86;21178;-92
2021/03/04 06:20:51;;;;;;;41.40;28.33;;;;;;;9.49;48.39;100089.94;1660013;83;21185;-90
2021/03/04 06:23:58;;;;;;;45.70;31.87;;;;;;;9.33;48.12;100084.31;1684570;80;21215;-89
2021/03/04 06:26:38;;;;;;;43.97;31.77;;;;;;;9.19;48.21;100076.36;1705201;81;21207;-92
2021/03/04 06:30:16;;;;;;;44.87;31.30;;;;;;;9.07;48.92;100076.83;1657957;85;21136;-93
2021/03/04 06:33:40;;;;;;;44.87;32.00;;;;;;;9.30;49.05;100077.21;1660574;81;21262;-93
2021/03/04 06:37:02;;;;;;;43.13;32.57;;;;;;;9.02;48.98;100065.91;1666070;81;21190;-91
2021/03/04 06:47:01;;;;;;;49.77;35.63;;;;;;;6.90;54.68;100051.98;1695007;80;21357;-92
2021/03/04 06:50:31;;;;;;;50.70;35.60;;;;;;;6.52;56.24;100045.14;1691048;82;21117;-91
2021/03/04 06:53:37;;;;;;;51.67;36.37;;;;;;;6.06;57.39;100040.89;1663199;83;21117;-89
2021/03/04 06:56:09;;;;;;;47.90;33.40;;;;;;;5.63;59.00;100045.81;1654085;83;21136;-88
2021/03/04 06:59:02;;;;;;;56.67;36.13;;;;;;;5.54;59.64;100044.14;1666338;84;21323;-91
2021/03/04 07:01:41;;;;;;;47.67;32.10;;;;;;;5.57;59.85;100046.44;1647895;84;21139;-87
2021/03/04 07:04:15;;;;;;;47.73;33.67;;;;;;;5.58;59.80;100040.17;1652117;83;21154;-90
2021/03/04 07:06:47;;;;;;;51.15;36.00;;;;;;;5.62;60.35;100026.95;1644608;84;21184;-86
2021/03/04 07:09:44;;;;;;;55.27;36.53;;;;;;;5.72;60.17;100024.66;1645654;85;21173;-88
2021/03/04 07:12:36;;;;;;;57.63;34.80;;;;;;;5.76;59.97;100016.72;1694326;83;21564;-89
2021/03/04 07:15:14;;;;;;;55.00;36.97;;;;;;;5.79;60.09;100009.78;1709547;82;21157;-89
2021/03/04 07:17:57;;;;;;;59.85;37.80;;;;;;;5.81;59.88;100012.58;1697033;82;21208;-89
2021/03/04 07:20:40;;;;;;;65.73;37.73;;;;;;;5.76;60.05;100009.59;1719156;82;21184;-89
2021/03/04 07:23:55;;;;;;;62.50;37.57;;;;;;;5.79;60.24;100006.64;1711435;81;21319;-89
2021/03/04 07:26:45;;;;;;;56.70;37.27;;;;;;;5.89;60.07;100006.46;1703990;84;21271;-89
2021/03/04 07:29:14;;;;;;;54.80;35.87;;;;;;;5.91;60.08;99991.25;1697915;82;21197;-88
2021/03/04 07:31:49;;;;;;;56.80;36.73;;;;;;;5.94;60.12;99987.46;1698537;82;21370;-86
2021/03/04 07:34:23;;;;;;;53.20;35.40;;;;;;;5.98;60.22;99975.58;1653690;81;21050;-89
2021/03/04 07:36:55;;;;;;;57.37;36.33;;;;;;;6.08;59.92;99974.07;1641347;85;21151;-87
2021/03/04 07:39:32;;;;;;;52.60;36.93;;;;;;;6.15;59.93;99961.32;1648867;83;21157;-88
2021/03/04 07:42:27;;;;;;;65.30;35.43;;;;;;;6.29;59.67;99954.52;1640861;83;21939;-87
2021/03/04 07:45:16;;;;;;;50.60;35.07;;;;;;;6.44;59.43;99954.62;1634269;84;21251;-88
2021/03/04 07:48:13;;;;;;;55.00;34.80;;;;;;;6.58;59.13;99942.50;1690188;82;21654;-89
2021/03/04 07:50:56;;;;;;;52.23;35.75;;;;;;;6.70;58.76;99943.76;1701905;83;21841;-87
2021/03/04 07:53:33;;;;;;;56.87;34.23;;;;;;;6.83;58.62;99937.91;1709509;83;21195;-87
2021/03/04 07:56:03;;;;;;;53.70;33.13;;;;;;;6.96;58.15;99936.02;1694760;82;21039;-86
2021/03/04 07:59:15;;;;;;;44.87;31.30;;;;;;;7.03;57.85;99925.05;1683409;84;21145;-87
2021/03/04 08:02:05;;;;;;;48.33;34.17;;;;;;;7.13;57.86;99920.84;1663051;83;21038;-87
2021/03/04 08:05:17;;;;;;;45.00;29.73;;;;;;;7.26;57.15;99914.45;1669352;85;21621;-88
2021/03/04 08:07:52;;;;;;;46.57;31.23;;;;;;;7.39;56.88;99908.05;1663458;85;21240;-88
2021/03/04 08:10:24;;;;;;;42.13;28.37;;;;;;;7.52;56.31;99903.98;1651686;85;21291;-90
2021/03/04 08:13:00;;;;;;;42.73;29.90;;;;;;;7.63;56.00;99889.45;1645342;85;21095;-88
2021/03/04 08:15:40;;;;;;;43.90;28.80;;;;;;;7.73;55.61;99895.34;1643773;85;21300;-88
2021/03/04 08:18:19;;;;;;;38.27;27.53;;;;;;;7.80;55.46;99887.80;1638078;87;21222;-88
2021/03/04 08:21:07;;;;;;;43.10;28.53;;;;;;;7.87;55.19;99880.42;1638406;85;21183;-88
2021/03/04 08:23:45;;;;;;;42.10;29.00;;;;;;;7.95;55.07;99873.73;1647564;84;21215;-86
2021/03/04 08:26:27;;;;;;;36.63;27.13;;;;;;;8.01;54.96;99872.17;1666901;84;21151;-88
2021/03/04 08:29:10;;;;;;;40.57;30.07;;;;;;;8.07;54.71;99871.44;1666826;85;21165;-87
2021/03/04 08:31:55;;;;;;;40.03;27.73;;;;;;;8.11;54.59;99866.07;1658549;84;21327;-87
2021/03/04 08:34:36;;;;;;;40.03;28.73;;;;;;;8.19;54.63;99864.64;1642372;84;21593;-88
2021/03/04 08:37:06;;;;;;;42.30;30.07;;;;;;;8.30;54.10;99861.52;1680880;83;21194;-89
2021/03/04 08:39:34;;;;;;;35.83;27.40;;;;;;;8.28;54.00;99840.96;1687722;83;21170;-87
2021/03/04 08:42:08;;;;;;;39.97;28.40;;;;;;;8.38;54.01;99841.52;1675929;83;21183;-89
2021/03/04 08:44:50;;;;;;;39.80;28.60;;;;;;;8.43;53.89;99836.98;1672549;81;21265;-90
2021/03/04 08:47:17;;;;;;;41.57;29.27;;;;;;;8.44;53.46;99837.80;1688965;83;21285;-88
2021/03/04 08:50:13;;;;;;;47.57;32.87;;;;;;;8.37;53.61;99836.38;1627158;86;21212;-90
2021/03/04 08:52:46;;;;;;;35.57;27.83;;;;;;;8.31;54.07;99841.93;1658167;83;21176;-87
2021/03/04 08:55:55;;;;;;;39.43;27.30;;;;;;;8.27;54.09;99838.01;1657948;84;21067;-88
2021/03/04 08:58:24;;;;;;;40.47;27.30;;;;;;;8.26;54.08;99825.72;1658830;85;21316;-86
2021/03/04 09:01:01;;;;;;;39.03;27.53;;;;;;;8.25;54.34;99833.87;1647331;84;21451;-88
2021/03/04 09:03:58;;;;;;;39.73;28.00;;;;;;;8.28;53.98;99826.36;1663204;84;21585;-88
2021/03/04 09:06:30;;;;;;;41.07;27.73;;;;;;;8.30;54.30;99814.23;1653561;85;21199;-88
2021/03/04 09:09:01;;;;;;;41.13;30.03;;;;;;;8.36;54.05;99813.48;1650064;85;21201;-88
2021/03/04 09:11:34;;;;;;;39.47;27.53;;;;;;;8.42;53.88;99809.28;1659384;81;21351;-88
2021/03/04 09:14:30;;;;;;;37.73;27.97;;;;;;;7.58;53.83;99667.21;1658899;84;21284;-88
2021/03/04 09:17:26;;;;;;;43.47;30.63;;;;;;;8.45;53.82;99790.33;1654979;83;21346;-87
2021/03/04 09:19:56;;;;;;;36.03;25.70;;;;;;;8.44;53.99;99795.31;1664036;83;21695;-87
2021/03/04 09:22:46;;;;;;;38.10;27.50;;;;;;;8.42;54.08;99790.69;1655463;81;21159;-85
2021/03/04 09:25:21;;;;;;;34.80;27.77;;;;;;;8.42;53.82;99791.53;1675840;84;21192;-89
2021/03/04 09:27:54;;;;;;;39.30;27.83;;;;;;;8.43;53.83;99785.71;1663703;85;21130;-87
2021/03/04 09:30:29;;;;;;;38.03;27.13;;;;;;;8.49;53.92;99783.62;1664354;84;21150;-90
2021/03/04 09:33:07;;;;;;;38.40;28.07;;;;;;;8.53;53.85;99779.58;1661212;84;21347;-87
2021/03/04 09:35:36;;;;;;;41.30;27.50;;;;;;;8.56;53.79;99776.04;1670778;84;21762;-89
2021/03/04 09:38:06;;;;;;;40.77;28.97;;;;;;;8.61;53.44;99766.67;1655836;85;21194;-87
2021/03/04 09:41:13;;;;;;;40.23;28.50;;;;;;;8.66;53.44;99760.30;1653919;85;21324;-90
2021/03/04 09:44:08;;;;;;;39.53;28.83;;;;;;;8.71;53.48;99757.90;1635230;82;21325;-88
2021/03/04 09:46:43;;;;;;;38.37;29.27;;;;;;;8.73;53.27;99746.05;1673022;84;21209;-89
2021/03/04 09:49:23;;;;;;;40.30;29.67;;;;;;;8.82;53.14;99744.61;1667927;84;21220;-90
2021/03/04 09:51:57;;;;;;;36.83;27.67;;;;;;;8.95;52.97;99743.39;1695322;83;21314;-88
2021/03/04 09:55:05;;;;;;;40.47;28.23;;;;;;;9.06;52.53;99733.56;1681754;84;21242;-88
2021/03/04 09:57:33;;;;;;;40.57;29.17;;;;;;;9.18;52.20;99727.20;1684759;84;21188;-88
2021/03/04 10:00:29;;;;;;;37.80;28.80;;;;;;;9.29;51.62;99720.02;1670538;83;21192;-89
2021/03/04 10:03:12;;;;;;;40.20;28.60;;;;;;;8.96;51.56;99645.34;1672518;85;21193;-90
2021/03/04 10:06:20;;;;;;;39.77;28.50;;;;;;;9.50;51.07;99710.31;1649829;84;21283;-89
2021/03/04 10:09:32;;;;;;;36.00;25.97;;;;;;;9.57;50.65;99704.52;1680569;84;21255;-87
2021/03/04 10:12:34;;;;;;;38.23;29.18;;;;;;;9.63;50.83;99705.57;1652011;84;21116;-89
2021/03/04 10:15:34;;;;;;;37.00;27.70;;;;;;;9.74;50.75;99697.02;1670560;85;21299;-88
2021/03/04 10:18:28;;;;;;;41.20;28.33;;;;;;;9.85;50.47;99694.28;1675591;84;21176;-90
2021/03/04 10:21:00;;;;;;;40.43;30.23;;;;;;;9.91;50.16;99677.02;1695374;83;21197;-87
2021/03/04 10:23:29;;;;;;;40.80;29.30;;;;;;;9.95;49.73;99658.80;1702072;81;21164;-89
2021/03/04 10:26:11;;;;;;;37.77;28.47;;;;;;;9.96;50.03;99659.09;1660904;84;21595;-89
2021/03/04 10:29:10;;;;;;;43.00;30.63;;;;;;;9.98;49.78;99649.58;1680756;83;21184;-89
2021/03/04 10:32:11;;;;;;;37.67;27.87;;;;;;;10.01;49.74;99645.20;1681670;80;21191;-89
2021/03/04 10:35:27;;;;;;;38.63;27.63;;;;;;;10.05;49.57;99639.77;1675135;82;21097;-86
2021/03/04 10:38:23;;;;;;;34.70;26.97;;;;;;;10.10;49.68;99638.14;1689750;82;21128;-88
2021/03/04 10:40:59;;;;;;;34.90;26.33;;;;;;;10.17;49.67;99632.84;1692771;81;21290;-91
2021/03/04 10:43:48;;;;;;;37.93;27.67;;;;;;;10.24;49.43;99628.31;1684569;83;21200;-89
2021/03/04 10:46:59;;;;;;;37.43;27.53;;;;;;;10.29;49.21;99629.88;1690214;79;21112;-88
2021/03/04 10:50:05;;;;;;;34.00;27.00;;;;;;;10.30;49.21;99622.23;1694781;81;21153;-88
2021/03/04 10:52:54;;;;;;;40.20;28.63;;;;;;;10.37;49.12;99613.41;1721312;80;21167;-88
2021/03/04 10:56:07;;;;;;;37.93;26.10;;;;;;;10.46;48.88;99610.86;1701850;81;21111;-89
2021/03/04 10:58:36;;;;;;;35.37;27.63;;;;;;;10.52;48.75;99602.84;1678615;84;21334;-89
2021/03/04 11:01:04;;;;;;;39.70;27.90;;;;;;;10.60;48.73;99607.66;1682042;84;21207;-87
2021/03/04 11:04:07;;;;;;;34.17;26.27;;;;;;;10.67;48.42;99596.48;1685859;84;21105;-87
2021/03/04 11:07:05;;;;;;;36.83;27.23;;;;;;;10.68;48.24;99596.28;1695708;83;21078;-89
2021/03/04 11:09:38;;;;;;;31.93;26.03;;;;;;;10.69;48.17;99591.25;1681892;84;21129;-89
2021/03/04 11:12:14;;;;;;;35.23;26.75;;;;;;;10.71;48.11;99581.19;1702901;81;21107;-88
2021/03/04 11:15:02;;;;;;;41.50;27.98;;;;;;;10.73;47.86;99578.84;1699381;83;21128;-88
2021/03/04 11:17:35;;;;;;;35.87;27.27;;;;;;;10.68;48.09;99574.13;1681793;84;21145;-89
2021/03/04 11:20:34;;;;;;;33.53;27.60;;;;;;;10.70;48.03;99584.91;1672911;81;21259;-88
2021/03/04 11:23:39;;;;;;;41.03;28.43;;;;;;;10.69;48.13;99575.25;1674632;81;21300;-88
2021/03/04 11:35:37;;;;;;;33.17;25.97;;;;;;;10.75;47.93;99560.28;1641841;84;21110;-89
2021/03/04 11:38:52;;;;;;;41.28;27.42;;;;;;;10.77;47.82;99565.41;1670199;82;21148;-92
2021/03/04 12:16:05;;;;;;;41.83;27.57;;;;;;;10.59;48.93;99511.44;1537298;88;21317;-92
2021/03/04 12:18:51;;;;;;;34.83;26.77;;;;;;;10.56;49.26;99514.51;1556491;91;21251;-91
2021/03/04 12:41:56;;;;;;;30.13;24.47;;;;;;;10.58;49.42;99486.61;1671073;82;21143;-90
2021/03/04 12:48:26;;;;;;;31.20;24.80;;;;;;;10.56;49.48;99491.86;1735657;79;22492;-92
2021/03/04 12:51:33;;;;;;;32.90;25.50;;;;;;;10.64;49.47;99486.29;1697061;81;21369;-90
2021/03/04 13:27:49;;;;;;;32.50;25.27;;;;;;;9.49;49.64;99280.37;1757866;81;21350;-93
2021/03/04 13:44:20;;;;;;;33.77;26.10;;;;;;;10.55;50.22;99465.73;1601696;87;21235;-92
2021/03/04 13:54:16;;;;;;;33.65;26.20;;;;;;;10.47;50.31;99464.12;1581910;84;21246;-88
2021/03/04 14:35:19;;;;;;;34.83;21.23;;;;;;;10.07;50.15;99452.67;1648844;82;21180;-91
2021/03/04 14:38:41;;;;;;;32.03;22.77;;;;;;;10.09;50.30;99455.95;1642994;83;21283;-88
2021/03/04 14:48:10;;;;;;;29.70;22.50;;;;;;;10.04;50.64;99447.26;1603052;86;21276;-90
2021/03/04 14:51:15;;;;;;;35.47;23.27;;;;;;;9.99;50.85;99443.05;1631314;85;21832;-92
2021/03/04 14:54:32;;;;;;;34.83;23.57;;;;;;;9.94;50.96;99442.84;1623082;86;21200;-90
2021/03/04 15:01:04;;;;;;;33.30;23.90;;;;;;;9.87;51.40;99455.34;1608786;85;21240;-90
2021/03/04 15:14:29;;;;;;;31.67;24.30;;;;;;;9.72;51.75;99443.59;1597298;84;21174;-90
2021/03/04 15:27:36;;;;;;;29.57;21.90;;;;;;;9.52;52.54;99447.04;1655121;82;21188;-92
2021/03/04 15:30:51;;;;;;;36.07;23.80;;;;;;;9.49;52.76;99454.11;1635305;83;21294;-91
2021/03/04 15:34:24;;;;;;;29.57;23.13;;;;;;;9.47;52.83;99449.48;1685522;82;21196;-88
2021/03/04 15:37:19;;;;;;;33.00;23.17;;;;;;;9.44;52.91;99444.59;1635375;85;21326;-91
2021/03/04 15:40:56;;;;;;;28.93;22.50;;;;;;;9.45;53.02;99452.05;1689882;82;21412;-91
2021/03/04 15:44:14;;;;;;;35.93;25.30;;;;;;;8.53;53.08;99304.12;1687229;82;21193;-90
2021/03/04 15:47:13;;;;;;;31.93;24.10;;;;;;;9.43;53.18;99452.24;1651064;85;21349;-90